sensor_id;sensor_type;location;lat;lon;timestamp;temperature;humidity
49679;DHT22;35570;48.218;16.326;2023-04-25T00:01:22;11.20;93.20
49679;DHT22;35570;48.218;16.326;2023-04-25T00:03:48;11.20;93.40
49679;DHT22;35570;48.218;16.326;2023-04-25T00:06:14;11.30;93.70
49679;DHT22;35570;48.218;16.326;2023-04-25T00:08:40;11.30;93.30
49679;DHT22;35570;48.218;16.326;2023-04-25T00:11:10;11.30;93.50
49679;DHT22;35570;48.218;16.326;2023-04-25T00:13:36;11.30;93.40
49679;DHT22;35570;48.218;16.326;2023-04-25T00:16:02;11.20;93.50
49679;DHT22;35570;48.218;16.326;2023-04-25T00:18:47;11.20;93.50
49679;DHT22;35570;48.218;16.326;2023-04-25T00:24:36;11.20;92.70
49679;DHT22;35570;48.218;16.326;2023-04-25T00:27:02;11.10;92.50
49679;DHT22;35570;48.218;16.326;2023-04-25T00:29:27;11.10;92.00
49679;DHT22;35570;48.218;16.326;2023-04-25T00:31:53;11.10;92.80
49679;DHT22;35570;48.218;16.326;2023-04-25T00:34:19;11.10;93.70
49679;DHT22;35570;48.218;16.326;2023-04-25T00:36:44;11.10;93.30
49679;DHT22;35570;48.218;16.326;2023-04-25T00:39:11;11.00;93.30
49679;DHT22;35570;48.218;16.326;2023-04-25T00:41:37;11.00;94.10
49679;DHT22;35570;48.218;16.326;2023-04-25T00:44:03;11.00;93.50
49679;DHT22;35570;48.218;16.326;2023-04-25T00:46:30;11.00;93.60
49679;DHT22;35570;48.218;16.326;2023-04-25T00:48:56;10.90;93.30
49679;DHT22;35570;48.218;16.326;2023-04-25T00:51:22;10.90;93.40
49679;DHT22;35570;48.218;16.326;2023-04-25T00:53:49;10.90;94.00
49679;DHT22;35570;48.218;16.326;2023-04-25T00:56:15;10.90;94.10
49679;DHT22;35570;48.218;16.326;2023-04-25T00:58:41;10.90;94.40
49679;DHT22;35570;48.218;16.326;2023-04-25T01:01:08;10.90;94.40
49679;DHT22;35570;48.218;16.326;2023-04-25T01:03:36;10.90;94.20
49679;DHT22;35570;48.218;16.326;2023-04-25T01:06:09;10.90;95.20
49679;DHT22;35570;48.218;16.326;2023-04-25T01:08:37;10.90;94.80
49679;DHT22;35570;48.218;16.326;2023-04-25T01:11:03;10.90;94.70
49679;DHT22;35570;48.218;16.326;2023-04-25T01:13:29;10.80;94.90
49679;DHT22;35570;48.218;16.326;2023-04-25T01:15:55;10.80;95.20
49679;DHT22;35570;48.218;16.326;2023-04-25T01:18:21;10.80;95.00
49679;DHT22;35570;48.218;16.326;2023-04-25T01:20:50;10.80;95.10
49679;DHT22;35570;48.218;16.326;2023-04-25T01:23:16;10.70;95.10
49679;DHT22;35570;48.218;16.326;2023-04-25T01:25:42;10.70;95.10
49679;DHT22;35570;48.218;16.326;2023-04-25T01:28:07;10.70;94.20
49679;DHT22;35570;48.218;16.326;2023-04-25T01:30:34;10.70;94.90
49679;DHT22;35570;48.218;16.326;2023-04-25T01:33:00;10.80;94.40
49679;DHT22;35570;48.218;16.326;2023-04-25T01:35:26;10.80;93.70
49679;DHT22;35570;48.218;16.326;2023-04-25T01:37:52;10.80;93.50
49679;DHT22;35570;48.218;16.326;2023-04-25T01:40:18;10.80;93.30
49679;DHT22;35570;48.218;16.326;2023-04-25T01:42:46;10.70;93.30
49679;DHT22;35570;48.218;16.326;2023-04-25T01:45:12;10.80;93.10
49679;DHT22;35570;48.218;16.326;2023-04-25T01:47:39;10.90;92.10
49679;DHT22;35570;48.218;16.326;2023-04-25T01:50:10;10.90;91.70
49679;DHT22;35570;48.218;16.326;2023-04-25T01:52:36;10.90;91.60
49679;DHT22;35570;48.218;16.326;2023-04-25T01:55:02;10.90;92.00
49679;DHT22;35570;48.218;16.326;2023-04-25T01:57:28;10.80;91.20
49679;DHT22;35570;48.218;16.326;2023-04-25T02:00:02;10.80;92.00
49679;DHT22;35570;48.218;16.326;2023-04-25T02:02:28;10.90;92.40
49679;DHT22;35570;48.218;16.326;2023-04-25T02:04:54;10.80;91.60
49679;DHT22;35570;48.218;16.326;2023-04-25T02:07:20;10.90;92.10
49679;DHT22;35570;48.218;16.326;2023-04-25T02:09:46;10.80;91.80
49679;DHT22;35570;48.218;16.326;2023-04-25T02:12:11;10.80;91.30
49679;DHT22;35570;48.218;16.326;2023-04-25T02:14:37;10.80;91.80
49679;DHT22;35570;48.218;16.326;2023-04-25T02:17:03;10.80;93.40
49679;DHT22;35570;48.218;16.326;2023-04-25T02:19:28;10.80;92.80
49679;DHT22;35570;48.218;16.326;2023-04-25T02:21:54;10.70;93.20
49679;DHT22;35570;48.218;16.326;2023-04-25T02:24:20;10.70;93.90
49679;DHT22;35570;48.218;16.326;2023-04-25T02:26:46;10.60;94.30
49679;DHT22;35570;48.218;16.326;2023-04-25T02:29:12;10.60;94.20
49679;DHT22;35570;48.218;16.326;2023-04-25T02:31:38;10.60;94.80
49679;DHT22;35570;48.218;16.326;2023-04-25T02:34:03;10.50;95.30
49679;DHT22;35570;48.218;16.326;2023-04-25T02:36:30;10.50;94.90
49679;DHT22;35570;48.218;16.326;2023-04-25T02:38:59;10.50;94.30
49679;DHT22;35570;48.218;16.326;2023-04-25T02:41:25;10.50;95.00
49679;DHT22;35570;48.218;16.326;2023-04-25T02:43:51;10.50;95.20
49679;DHT22;35570;48.218;16.326;2023-04-25T02:46:17;10.40;95.50
49679;DHT22;35570;48.218;16.326;2023-04-25T02:48:42;10.40;95.70
49679;DHT22;35570;48.218;16.326;2023-04-25T02:51:09;10.40;95.80
49679;DHT22;35570;48.218;16.326;2023-04-25T02:53:34;10.30;95.80
49679;DHT22;35570;48.218;16.326;2023-04-25T02:56:00;10.30;96.20
49679;DHT22;35570;48.218;16.326;2023-04-25T02:58:26;10.30;96.00
49679;DHT22;35570;48.218;16.326;2023-04-25T03:00:52;10.30;95.50
49679;DHT22;35570;48.218;16.326;2023-04-25T03:03:17;10.30;96.10
49679;DHT22;35570;48.218;16.326;2023-04-25T03:05:48;10.30;96.20
49679;DHT22;35570;48.218;16.326;2023-04-25T03:08:13;10.30;95.70
49679;DHT22;35570;48.218;16.326;2023-04-25T03:10:39;10.40;95.20
49679;DHT22;35570;48.218;16.326;2023-04-25T03:13:05;10.40;95.60
49679;DHT22;35570;48.218;16.326;2023-04-25T03:15:31;10.40;95.60
49679;DHT22;35570;48.218;16.326;2023-04-25T03:17:56;10.30;95.40
49679;DHT22;35570;48.218;16.326;2023-04-25T03:20:22;10.30;95.60
49679;DHT22;35570;48.218;16.326;2023-04-25T03:22:48;10.30;95.90
49679;DHT22;35570;48.218;16.326;2023-04-25T03:25:13;10.30;96.30
49679;DHT22;35570;48.218;16.326;2023-04-25T03:27:39;10.30;95.60
49679;DHT22;35570;48.218;16.326;2023-04-25T03:30:05;10.20;95.50
49679;DHT22;35570;48.218;16.326;2023-04-25T03:32:32;10.10;96.10
49679;DHT22;35570;48.218;16.326;2023-04-25T03:34:57;10.10;96.70
49679;DHT22;35570;48.218;16.326;2023-04-25T03:37:23;10.10;96.40
49679;DHT22;35570;48.218;16.326;2023-04-25T03:39:48;10.10;96.50
49679;DHT22;35570;48.218;16.326;2023-04-25T03:42:14;10.10;96.60
49679;DHT22;35570;48.218;16.326;2023-04-25T03:44:40;10.10;96.20
49679;DHT22;35570;48.218;16.326;2023-04-25T03:47:05;10.10;95.70
49679;DHT22;35570;48.218;16.326;2023-04-25T03:49:33;10.10;95.40
49679;DHT22;35570;48.218;16.326;2023-04-25T03:51:59;10.10;94.90
49679;DHT22;35570;48.218;16.326;2023-04-25T03:54:25;10.00;95.80
49679;DHT22;35570;48.218;16.326;2023-04-25T03:56:51;10.00;95.30
49679;DHT22;35570;48.218;16.326;2023-04-25T03:59:17;10.00;95.20
49679;DHT22;35570;48.218;16.326;2023-04-25T04:01:42;10.00;94.90
49679;DHT22;35570;48.218;16.326;2023-04-25T04:04:08;9.90;94.90
49679;DHT22;35570;48.218;16.326;2023-04-25T04:06:33;9.90;95.00
49679;DHT22;35570;48.218;16.326;2023-04-25T04:08:59;9.90;95.80
49679;DHT22;35570;48.218;16.326;2023-04-25T04:11:25;9.80;96.00
49679;DHT22;35570;48.218;16.326;2023-04-25T04:13:51;9.90;95.60
49679;DHT22;35570;48.218;16.326;2023-04-25T04:16:17;9.90;95.80
49679;DHT22;35570;48.218;16.326;2023-04-25T04:18:42;9.80;95.00
49679;DHT22;35570;48.218;16.326;2023-04-25T04:21:08;9.80;95.60
49679;DHT22;35570;48.218;16.326;2023-04-25T04:23:34;9.80;97.00
49679;DHT22;35570;48.218;16.326;2023-04-25T04:26:00;9.70;96.60
49679;DHT22;35570;48.218;16.326;2023-04-25T04:28:26;9.80;96.20
49679;DHT22;35570;48.218;16.326;2023-04-25T04:30:52;9.80;96.10
49679;DHT22;35570;48.218;16.326;2023-04-25T04:33:18;9.80;95.20
49679;DHT22;35570;48.218;16.326;2023-04-25T04:35:46;9.80;95.60
49679;DHT22;35570;48.218;16.326;2023-04-25T04:38:13;9.80;95.80
49679;DHT22;35570;48.218;16.326;2023-04-25T04:40:41;9.80;94.90
49679;DHT22;35570;48.218;16.326;2023-04-25T04:43:08;9.80;95.80
49679;DHT22;35570;48.218;16.326;2023-04-25T04:45:36;9.80;95.70
49679;DHT22;35570;48.218;16.326;2023-04-25T04:48:05;9.80;94.50
49679;DHT22;35570;48.218;16.326;2023-04-25T04:50:31;9.80;94.90
49679;DHT22;35570;48.218;16.326;2023-04-25T04:52:58;9.80;94.90
49679;DHT22;35570;48.218;16.326;2023-04-25T04:55:23;9.80;94.50
49679;DHT22;35570;48.218;16.326;2023-04-25T04:57:49;9.80;94.70
49679;DHT22;35570;48.218;16.326;2023-04-25T05:00:16;9.80;94.00
49679;DHT22;35570;48.218;16.326;2023-04-25T05:02:42;9.80;94.20
49679;DHT22;35570;48.218;16.326;2023-04-25T05:05:07;9.70;94.40
49679;DHT22;35570;48.218;16.326;2023-04-25T05:07:33;9.70;94.60
49679;DHT22;35570;48.218;16.326;2023-04-25T05:09:59;9.80;94.00
49679;DHT22;35570;48.218;16.326;2023-04-25T05:12:25;9.80;94.30
49679;DHT22;35570;48.218;16.326;2023-04-25T05:14:52;9.80;93.50
49679;DHT22;35570;48.218;16.326;2023-04-25T05:17:17;9.70;93.90
49679;DHT22;35570;48.218;16.326;2023-04-25T05:19:43;9.70;94.30
49679;DHT22;35570;48.218;16.326;2023-04-25T05:22:09;9.60;94.80
49679;DHT22;35570;48.218;16.326;2023-04-25T05:24:35;9.60;95.20
49679;DHT22;35570;48.218;16.326;2023-04-25T05:27:00;9.60;95.30
49679;DHT22;35570;48.218;16.326;2023-04-25T05:29:26;9.50;95.00
49679;DHT22;35570;48.218;16.326;2023-04-25T05:31:51;9.50;95.80
49679;DHT22;35570;48.218;16.326;2023-04-25T05:34:18;9.50;96.40
49679;DHT22;35570;48.218;16.326;2023-04-25T05:36:43;9.50;96.20
49679;DHT22;35570;48.218;16.326;2023-04-25T05:39:09;9.50;95.40
49679;DHT22;35570;48.218;16.326;2023-04-25T05:41:35;9.60;96.20
49679;DHT22;35570;48.218;16.326;2023-04-25T05:44:01;9.70;96.00
49679;DHT22;35570;48.218;16.326;2023-04-25T05:46:27;9.80;94.90
49679;DHT22;35570;48.218;16.326;2023-04-25T05:48:53;9.90;95.70
49679;DHT22;35570;48.218;16.326;2023-04-25T05:51:18;10.00;94.50
49679;DHT22;35570;48.218;16.326;2023-04-25T05:53:44;10.10;94.90
49679;DHT22;35570;48.218;16.326;2023-04-25T05:56:10;10.10;93.40
49679;DHT22;35570;48.218;16.326;2023-04-25T05:58:36;10.30;93.40
49679;DHT22;35570;48.218;16.326;2023-04-25T06:01:02;10.40;92.60
49679;DHT22;35570;48.218;16.326;2023-04-25T06:03:28;10.50;92.70
49679;DHT22;35570;48.218;16.326;2023-04-25T06:05:53;10.60;92.50
49679;DHT22;35570;48.218;16.326;2023-04-25T06:08:19;10.70;90.60
49679;DHT22;35570;48.218;16.326;2023-04-25T06:10:45;10.80;91.00
49679;DHT22;35570;48.218;16.326;2023-04-25T06:13:10;10.80;90.30
49679;DHT22;35570;48.218;16.326;2023-04-25T06:15:36;10.90;87.50
49679;DHT22;35570;48.218;16.326;2023-04-25T06:18:02;11.10;84.50
49679;DHT22;35570;48.218;16.326;2023-04-25T06:20:28;11.10;85.80
49679;DHT22;35570;48.218;16.326;2023-04-25T06:22:53;11.10;85.20
49679;DHT22;35570;48.218;16.326;2023-04-25T06:25:19;11.20;84.20
49679;DHT22;35570;48.218;16.326;2023-04-25T06:27:45;11.30;82.80
49679;DHT22;35570;48.218;16.326;2023-04-25T06:30:11;11.40;82.20
49679;DHT22;35570;48.218;16.326;2023-04-25T06:32:40;11.40;82.10
49679;DHT22;35570;48.218;16.326;2023-04-25T06:35:06;11.50;82.60
49679;DHT22;35570;48.218;16.326;2023-04-25T06:37:32;11.60;80.90
49679;DHT22;35570;48.218;16.326;2023-04-25T06:39:57;11.60;78.80
49679;DHT22;35570;48.218;16.326;2023-04-25T06:42:23;11.70;79.00
49679;DHT22;35570;48.218;16.326;2023-04-25T06:44:49;11.80;79.10
49679;DHT22;35570;48.218;16.326;2023-04-25T06:47:14;11.80;77.90
49679;DHT22;35570;48.218;16.326;2023-04-25T06:49:40;12.00;77.00
49679;DHT22;35570;48.218;16.326;2023-04-25T06:52:06;12.10;76.60
49679;DHT22;35570;48.218;16.326;2023-04-25T06:54:32;12.20;75.90
49679;DHT22;35570;48.218;16.326;2023-04-25T06:56:58;12.30;77.10
49679;DHT22;35570;48.218;16.326;2023-04-25T06:59:23;12.40;74.40
49679;DHT22;35570;48.218;16.326;2023-04-25T07:01:49;12.50;74.70
49679;DHT22;35570;48.218;16.326;2023-04-25T07:04:15;12.60;74.70
49679;DHT22;35570;48.218;16.326;2023-04-25T07:06:40;12.70;73.40
49679;DHT22;35570;48.218;16.326;2023-04-25T07:09:08;12.80;76.80
49679;DHT22;35570;48.218;16.326;2023-04-25T07:11:35;13.10;83.70
49679;DHT22;35570;48.218;16.326;2023-04-25T07:14:01;13.40;77.00
49679;DHT22;35570;48.218;16.326;2023-04-25T07:16:27;13.40;72.90
49679;DHT22;35570;48.218;16.326;2023-04-25T07:18:53;13.60;77.40
49679;DHT22;35570;48.218;16.326;2023-04-25T07:21:18;13.60;72.40
49679;DHT22;35570;48.218;16.326;2023-04-25T07:23:44;13.60;75.10
49679;DHT22;35570;48.218;16.326;2023-04-25T07:26:10;13.60;74.50
49679;DHT22;35570;48.218;16.326;2023-04-25T07:28:36;13.60;74.60
49679;DHT22;35570;48.218;16.326;2023-04-25T07:31:01;13.70;71.40
49679;DHT22;35570;48.218;16.326;2023-04-25T07:33:28;13.80;75.90
49679;DHT22;35570;48.218;16.326;2023-04-25T07:35:53;14.00;80.00
49679;DHT22;35570;48.218;16.326;2023-04-25T07:38:19;14.10;71.50
49679;DHT22;35570;48.218;16.326;2023-04-25T07:40:48;14.20;70.10
49679;DHT22;35570;48.218;16.326;2023-04-25T07:43:15;14.30;71.80
49679;DHT22;35570;48.218;16.326;2023-04-25T07:45:45;14.40;70.80
49679;DHT22;35570;48.218;16.326;2023-04-25T07:48:11;14.50;68.40
49679;DHT22;35570;48.218;16.326;2023-04-25T07:50:36;14.60;69.30
49679;DHT22;35570;48.218;16.326;2023-04-25T07:53:02;14.80;70.20
49679;DHT22;35570;48.218;16.326;2023-04-25T07:55:28;14.90;69.00
49679;DHT22;35570;48.218;16.326;2023-04-25T07:57:54;15.10;70.10
49679;DHT22;35570;48.218;16.326;2023-04-25T08:00:20;15.30;67.50
49679;DHT22;35570;48.218;16.326;2023-04-25T08:02:45;15.40;67.20
49679;DHT22;35570;48.218;16.326;2023-04-25T08:05:12;15.40;68.30
49679;DHT22;35570;48.218;16.326;2023-04-25T08:07:41;15.50;63.80
49679;DHT22;35570;48.218;16.326;2023-04-25T08:10:10;15.40;69.50
49679;DHT22;35570;48.218;16.326;2023-04-25T08:12:38;15.50;68.80
49679;DHT22;35570;48.218;16.326;2023-04-25T08:15:05;15.70;65.70
49679;DHT22;35570;48.218;16.326;2023-04-25T08:17:32;16.00;70.30
49679;DHT22;35570;48.218;16.326;2023-04-25T08:19:59;16.30;66.30
49679;DHT22;35570;48.218;16.326;2023-04-25T08:22:25;16.50;64.30
49679;DHT22;35570;48.218;16.326;2023-04-25T08:24:50;16.50;63.20
49679;DHT22;35570;48.218;16.326;2023-04-25T08:27:17;16.50;65.70
49679;DHT22;35570;48.218;16.326;2023-04-25T08:29:43;16.50;64.10
49679;DHT22;35570;48.218;16.326;2023-04-25T08:32:09;16.40;64.30
49679;DHT22;35570;48.218;16.326;2023-04-25T08:34:35;16.40;63.40
49679;DHT22;35570;48.218;16.326;2023-04-25T08:37:02;16.50;62.70
49679;DHT22;35570;48.218;16.326;2023-04-25T08:39:29;16.70;63.20
49679;DHT22;35570;48.218;16.326;2023-04-25T08:41:56;16.90;62.80
49679;DHT22;35570;48.218;16.326;2023-04-25T08:55:01;17.60;58.90
49679;DHT22;35570;48.218;16.326;2023-04-25T08:57:27;17.40;61.00
49679;DHT22;35570;48.218;16.326;2023-04-25T08:59:54;17.20;63.70
49679;DHT22;35570;48.218;16.326;2023-04-25T09:02:20;16.90;60.20
49679;DHT22;35570;48.218;16.326;2023-04-25T09:04:47;16.60;59.80
49679;DHT22;35570;48.218;16.326;2023-04-25T09:07:14;16.40;60.70
49679;DHT22;35570;48.218;16.326;2023-04-25T09:12:19;16.20;61.90
49679;DHT22;35570;48.218;16.326;2023-04-25T09:15:07;16.10;62.30
49679;DHT22;35570;48.218;16.326;2023-04-25T09:17:34;15.80;63.30
49679;DHT22;35570;48.218;16.326;2023-04-25T09:20:07;15.50;63.80
49679;DHT22;35570;48.218;16.326;2023-04-25T09:22:36;15.30;65.50
49679;DHT22;35570;48.218;16.326;2023-04-25T09:25:09;15.10;66.90
49679;DHT22;35570;48.218;16.326;2023-04-25T09:27:35;15.00;66.10
49679;DHT22;35570;48.218;16.326;2023-04-25T09:30:01;14.80;66.20
49679;DHT22;35570;48.218;16.326;2023-04-25T09:32:27;14.70;67.70
49679;DHT22;35570;48.218;16.326;2023-04-25T09:34:55;14.60;70.00
49679;DHT22;35570;48.218;16.326;2023-04-25T09:37:26;14.20;72.20
49679;DHT22;35570;48.218;16.326;2023-04-25T09:39:55;13.90;75.90
49679;DHT22;35570;48.218;16.326;2023-04-25T09:42:27;13.60;77.00
49679;DHT22;35570;48.218;16.326;2023-04-25T09:45:07;13.40;79.60
49679;DHT22;35570;48.218;16.326;2023-04-25T09:47:37;12.60;78.00
49679;DHT22;35570;48.218;16.326;2023-04-25T09:50:16;13.00;77.80
49679;DHT22;35570;48.218;16.326;2023-04-25T09:52:46;13.20;76.20
49679;DHT22;35570;48.218;16.326;2023-04-25T09:55:27;13.20;76.80
49679;DHT22;35570;48.218;16.326;2023-04-25T09:57:54;13.80;77.30
49679;DHT22;35570;48.218;16.326;2023-04-25T10:00:22;14.10;68.10
49679;DHT22;35570;48.218;16.326;2023-04-25T10:02:49;14.40;71.20
49679;DHT22;35570;48.218;16.326;2023-04-25T10:05:18;14.40;66.90
49679;DHT22;35570;48.218;16.326;2023-04-25T10:07:44;14.30;66.20
49679;DHT22;35570;48.218;16.326;2023-04-25T10:10:12;14.30;66.60
49679;DHT22;35570;48.218;16.326;2023-04-25T10:12:38;14.50;67.00
49679;DHT22;35570;48.218;16.326;2023-04-25T10:15:06;14.50;65.10
49679;DHT22;35570;48.218;16.326;2023-04-25T10:21:04;14.00;64.30
49679;DHT22;35570;48.218;16.326;2023-04-25T10:23:32;14.70;64.90
49679;DHT22;35570;48.218;16.326;2023-04-25T10:25:59;14.70;67.00
49679;DHT22;35570;48.218;16.326;2023-04-25T10:28:26;14.90;64.40
49679;DHT22;35570;48.218;16.326;2023-04-25T10:31:03;15.00;66.40
49679;DHT22;35570;48.218;16.326;2023-04-25T10:36:18;14.20;64.20
49679;DHT22;35570;48.218;16.326;2023-04-25T10:38:48;14.00;67.20
49679;DHT22;35570;48.218;16.326;2023-04-25T10:41:19;13.90;66.10
49679;DHT22;35570;48.218;16.326;2023-04-25T10:43:46;14.00;66.90
49679;DHT22;35570;48.218;16.326;2023-04-25T10:46:26;14.40;66.60
49679;DHT22;35570;48.218;16.326;2023-04-25T10:48:58;15.70;68.50
49679;DHT22;35570;48.218;16.326;2023-04-25T10:51:31;17.90;62.80
49679;DHT22;35570;48.218;16.326;2023-04-25T10:54:00;19.60;57.90
49679;DHT22;35570;48.218;16.326;2023-04-25T10:56:35;21.20;50.20
49679;DHT22;35570;48.218;16.326;2023-04-25T10:59:23;22.30;45.70
49679;DHT22;35570;48.218;16.326;2023-04-25T11:01:52;22.70;45.90
49679;DHT22;35570;48.218;16.326;2023-04-25T11:04:33;23.00;45.80
49679;DHT22;35570;48.218;16.326;2023-04-25T11:07:13;23.30;46.10
49679;DHT22;35570;48.218;16.326;2023-04-25T11:09:49;23.90;46.40
49679;DHT22;35570;48.218;16.326;2023-04-25T11:12:15;23.80;45.20
49679;DHT22;35570;48.218;16.326;2023-04-25T11:14:43;23.00;44.30
49679;DHT22;35570;48.218;16.326;2023-04-25T11:17:08;22.80;45.10
49679;DHT22;35570;48.218;16.326;2023-04-25T11:19:35;22.50;43.00
49679;DHT22;35570;48.218;16.326;2023-04-25T11:22:02;22.20;48.10
49679;DHT22;35570;48.218;16.326;2023-04-25T11:24:32;22.10;44.90
49679;DHT22;35570;48.218;16.326;2023-04-25T11:27:00;21.60;45.00
49679;DHT22;35570;48.218;16.326;2023-04-25T11:29:30;20.40;47.70
49679;DHT22;35570;48.218;16.326;2023-04-25T11:31:57;19.40;50.50
49679;DHT22;35570;48.218;16.326;2023-04-25T11:34:27;18.50;53.80
49679;DHT22;35570;48.218;16.326;2023-04-25T11:36:56;17.80;56.20
49679;DHT22;35570;48.218;16.326;2023-04-25T11:39:25;16.70;57.30
49679;DHT22;35570;48.218;16.326;2023-04-25T11:41:54;15.70;62.70
49679;DHT22;35570;48.218;16.326;2023-04-25T11:44:21;14.60;65.70
49679;DHT22;35570;48.218;16.326;2023-04-25T11:46:47;13.90;69.60
49679;DHT22;35570;48.218;16.326;2023-04-25T11:49:17;13.50;71.40
49679;DHT22;35570;48.218;16.326;2023-04-25T11:51:47;13.30;71.30
49679;DHT22;35570;48.218;16.326;2023-04-25T11:54:14;13.20;73.30
49679;DHT22;35570;48.218;16.326;2023-04-25T11:56:46;13.10;74.10
49679;DHT22;35570;48.218;16.326;2023-04-25T11:59:13;13.10;74.60
49679;DHT22;35570;48.218;16.326;2023-04-25T12:01:40;13.20;72.90
49679;DHT22;35570;48.218;16.326;2023-04-25T12:04:14;13.40;72.00
49679;DHT22;35570;48.218;16.326;2023-04-25T12:06:43;13.70;71.80
49679;DHT22;35570;48.218;16.326;2023-04-25T12:09:11;14.10;68.20
49679;DHT22;35570;48.218;16.326;2023-04-25T12:11:46;14.30;68.60
49679;DHT22;35570;48.218;16.326;2023-04-25T12:14:19;14.70;68.20
49679;DHT22;35570;48.218;16.326;2023-04-25T12:16:46;15.10;67.70
49679;DHT22;35570;48.218;16.326;2023-04-25T12:19:16;15.70;66.10
49679;DHT22;35570;48.218;16.326;2023-04-25T12:21:45;16.30;64.50
49679;DHT22;35570;48.218;16.326;2023-04-25T12:24:14;17.20;64.50
49679;DHT22;35570;48.218;16.326;2023-04-25T12:27:10;17.90;60.30
49679;DHT22;35570;48.218;16.326;2023-04-25T12:29:56;18.60;58.40
49679;DHT22;35570;48.218;16.326;2023-04-25T12:32:22;18.50;55.90
49679;DHT22;35570;48.218;16.326;2023-04-25T12:34:47;18.70;55.00
49679;DHT22;35570;48.218;16.326;2023-04-25T12:37:20;19.10;56.30
49679;DHT22;35570;48.218;16.326;2023-04-25T12:39:55;20.00;53.40
49679;DHT22;35570;48.218;16.326;2023-04-25T12:42:20;21.00;54.20
49679;DHT22;35570;48.218;16.326;2023-04-25T12:44:46;20.80;47.20
49679;DHT22;35570;48.218;16.326;2023-04-25T12:47:13;20.20;48.50
49679;DHT22;35570;48.218;16.326;2023-04-25T12:52:16;20.10;49.10
49679;DHT22;35570;48.218;16.326;2023-04-25T12:54:42;19.60;50.90
49679;DHT22;35570;48.218;16.326;2023-04-25T12:59:46;19.10;53.20
49679;DHT22;35570;48.218;16.326;2023-04-25T13:02:12;19.80;50.30
49679;DHT22;35570;48.218;16.326;2023-04-25T13:04:38;20.40;48.40
49679;DHT22;35570;48.218;16.326;2023-04-25T13:07:04;20.60;48.40
49679;DHT22;35570;48.218;16.326;2023-04-25T13:09:31;21.30;45.80
49679;DHT22;35570;48.218;16.326;2023-04-25T13:14:24;22.60;44.00
49679;DHT22;35570;48.218;16.326;2023-04-25T13:16:50;22.60;41.90
49679;DHT22;35570;48.218;16.326;2023-04-25T13:19:16;23.10;42.10
49679;DHT22;35570;48.218;16.326;2023-04-25T13:21:41;23.30;40.90
49679;DHT22;35570;48.218;16.326;2023-04-25T13:24:08;23.90;40.50
49679;DHT22;35570;48.218;16.326;2023-04-25T13:26:36;24.10;41.20
49679;DHT22;35570;48.218;16.326;2023-04-25T13:29:02;23.70;41.60
49679;DHT22;35570;48.218;16.326;2023-04-25T13:31:30;23.70;41.50
49679;DHT22;35570;48.218;16.326;2023-04-25T13:33:56;23.30;41.90
49679;DHT22;35570;48.218;16.326;2023-04-25T13:36:21;23.20;42.80
49679;DHT22;35570;48.218;16.326;2023-04-25T13:38:47;23.10;40.70
49679;DHT22;35570;48.218;16.326;2023-04-25T13:41:14;23.10;42.70
49679;DHT22;35570;48.218;16.326;2023-04-25T13:43:44;22.70;40.70
49679;DHT22;35570;48.218;16.326;2023-04-25T13:46:11;21.90;41.50
49679;DHT22;35570;48.218;16.326;2023-04-25T13:48:38;21.60;44.10
49679;DHT22;35570;48.218;16.326;2023-04-25T13:51:04;21.90;45.50
49679;DHT22;35570;48.218;16.326;2023-04-25T13:53:30;22.90;43.10
49679;DHT22;35570;48.218;16.326;2023-04-25T13:55:57;24.00;43.40
49679;DHT22;35570;48.218;16.326;2023-04-25T13:58:22;25.00;40.10
49679;DHT22;35570;48.218;16.326;2023-04-25T14:00:48;25.10;39.20
49679;DHT22;35570;48.218;16.326;2023-04-25T14:03:13;25.40;38.50
49679;DHT22;35570;48.218;16.326;2023-04-25T14:05:39;26.20;37.50
49679;DHT22;35570;48.218;16.326;2023-04-25T14:08:09;27.30;38.10
49679;DHT22;35570;48.218;16.326;2023-04-25T14:10:35;27.70;36.60
49679;DHT22;35570;48.218;16.326;2023-04-25T14:13:01;27.40;35.40
49679;DHT22;35570;48.218;16.326;2023-04-25T14:15:31;26.70;37.90
49679;DHT22;35570;48.218;16.326;2023-04-25T14:17:57;27.50;35.00
49679;DHT22;35570;48.218;16.326;2023-04-25T14:20:22;28.70;35.30
49679;DHT22;35570;48.218;16.326;2023-04-25T14:22:49;27.70;34.80
49679;DHT22;35570;48.218;16.326;2023-04-25T14:25:15;25.60;37.00
49679;DHT22;35570;48.218;16.326;2023-04-25T14:31:44;21.00;44.70
49679;DHT22;35570;48.218;16.326;2023-04-25T14:40:38;17.40;54.20
49679;DHT22;35570;48.218;16.326;2023-04-25T14:44:07;16.80;57.00
49679;DHT22;35570;48.218;16.326;2023-04-25T14:47:03;16.80;56.70
49679;DHT22;35570;48.218;16.326;2023-04-25T14:49:29;17.10;55.50
49679;DHT22;35570;48.218;16.326;2023-04-25T14:51:56;18.60;54.30
49679;DHT22;35570;48.218;16.326;2023-04-25T14:54:23;20.00;49.10
49679;DHT22;35570;48.218;16.326;2023-04-25T14:57:16;21.60;45.20
49679;DHT22;35570;48.218;16.326;2023-04-25T15:00:03;24.00;42.20
49679;DHT22;35570;48.218;16.326;2023-04-25T15:02:33;23.50;40.30
49679;DHT22;35570;48.218;16.326;2023-04-25T15:04:59;22.10;42.90
49679;DHT22;35570;48.218;16.326;2023-04-25T15:07:27;20.50;46.20
49679;DHT22;35570;48.218;16.326;2023-04-25T15:09:53;19.20;48.20
49679;DHT22;35570;48.218;16.326;2023-04-25T15:12:19;18.30;52.10
49679;DHT22;35570;48.218;16.326;2023-04-25T15:14:45;17.50;54.60
49679;DHT22;35570;48.218;16.326;2023-04-25T15:17:16;16.80;57.70
49679;DHT22;35570;48.218;16.326;2023-04-25T15:19:44;16.70;59.60
49679;DHT22;35570;48.218;16.326;2023-04-25T15:22:10;16.80;57.30
49679;DHT22;35570;48.218;16.326;2023-04-25T15:24:36;17.30;54.90
49679;DHT22;35570;48.218;16.326;2023-04-25T15:27:01;17.40;54.10
49679;DHT22;35570;48.218;16.326;2023-04-25T15:29:32;17.20;54.40
49679;DHT22;35570;48.218;16.326;2023-04-25T15:31:57;16.90;54.60
49679;DHT22;35570;48.218;16.326;2023-04-25T15:34:23;17.10;55.90
49679;DHT22;35570;48.218;16.326;2023-04-25T15:36:49;17.70;53.90
49679;DHT22;35570;48.218;16.326;2023-04-25T15:39:14;18.20;51.70
49679;DHT22;35570;48.218;16.326;2023-04-25T15:41:40;20.70;47.00
49679;DHT22;35570;48.218;16.326;2023-04-25T15:44:06;22.60;42.50
49679;DHT22;35570;48.218;16.326;2023-04-25T15:46:33;23.90;40.40
49679;DHT22;35570;48.218;16.326;2023-04-25T15:54:09;19.90;47.50
49679;DHT22;35570;48.218;16.326;2023-04-25T17:53:51;12.80;70.80
49679;DHT22;35570;48.218;16.326;2023-04-25T18:20:55;12.10;73.00
49679;DHT22;35570;48.218;16.326;2023-04-25T18:32:04;12.10;76.10
